sensor_id;sensor_type;location;lat;lon;timestamp;temperature;humidity
60027;DHT22;45891;53.006;6.512;2022-09-09T00:01:07;14.50;99.90
60027;DHT22;45891;53.006;6.512;2022-09-09T00:03:56;14.50;99.90
60027;DHT22;45891;53.006;6.512;2022-09-09T00:06:42;14.40;99.90
60027;DHT22;45891;53.006;6.512;2022-09-09T00:09:20;14.40;99.90
60027;DHT22;45891;53.006;6.512;2022-09-09T00:12:01;14.40;99.90
60027;DHT22;45891;53.006;6.512;2022-09-09T00:17:12;14.40;99.90
60027;DHT22;45891;53.006;6.512;2022-09-09T00:20:00;14.40;99.90
60027;DHT22;45891;53.006;6.512;2022-09-09T00:22:30;14.30;99.90
60027;DHT22;45891;53.006;6.512;2022-09-09T00:25:12;14.30;99.90
60027;DHT22;45891;53.006;6.512;2022-09-09T00:30:26;14.30;99.90
60027;DHT22;45891;53.006;6.512;2022-09-09T00:32:55;14.30;99.90
60027;DHT22;45891;53.006;6.512;2022-09-09T00:35:29;14.30;99.90
60027;DHT22;45891;53.006;6.512;2022-09-09T00:38:00;14.20;99.90
60027;DHT22;45891;53.006;6.512;2022-09-09T00:40:37;14.20;99.90
60027;DHT22;45891;53.006;6.512;2022-09-09T00:43:30;14.20;99.90
60027;DHT22;45891;53.006;6.512;2022-09-09T00:46:33;14.20;99.90
60027;DHT22;45891;53.006;6.512;2022-09-09T00:49:34;14.20;99.90
60027;DHT22;45891;53.006;6.512;2022-09-09T00:57:35;14.10;99.90
60027;DHT22;45891;53.006;6.512;2022-09-09T01:00:36;14.10;99.90
60027;DHT22;45891;53.006;6.512;2022-09-09T01:06:14;14.00;99.90
60027;DHT22;45891;53.006;6.512;2022-09-09T01:12:01;14.00;99.90
60027;DHT22;45891;53.006;6.512;2022-09-09T01:17:26;14.00;99.90
60027;DHT22;45891;53.006;6.512;2022-09-09T01:25:56;13.90;99.90
60027;DHT22;45891;53.006;6.512;2022-09-09T01:28:27;14.00;99.90
60027;DHT22;45891;53.006;6.512;2022-09-09T01:30:55;14.00;99.90
60027;DHT22;45891;53.006;6.512;2022-09-09T01:33:22;14.00;99.90
60027;DHT22;45891;53.006;6.512;2022-09-09T01:35:59;14.00;99.90
60027;DHT22;45891;53.006;6.512;2022-09-09T01:38:28;14.00;99.90
60027;DHT22;45891;53.006;6.512;2022-09-09T01:40:55;14.00;99.90
60027;DHT22;45891;53.006;6.512;2022-09-09T01:43:22;14.00;99.90
60027;DHT22;45891;53.006;6.512;2022-09-09T01:45:50;14.00;99.90
60027;DHT22;45891;53.006;6.512;2022-09-09T01:48:19;14.00;99.90
60027;DHT22;45891;53.006;6.512;2022-09-09T01:50:46;14.00;99.90
60027;DHT22;45891;53.006;6.512;2022-09-09T01:53:13;14.00;99.90
60027;DHT22;45891;53.006;6.512;2022-09-09T01:55:42;14.10;99.90
60027;DHT22;45891;53.006;6.512;2022-09-09T02:03:49;14.10;99.90
60027;DHT22;45891;53.006;6.512;2022-09-09T02:09:02;14.10;99.90
60027;DHT22;45891;53.006;6.512;2022-09-09T02:11:30;14.10;99.90
60027;DHT22;45891;53.006;6.512;2022-09-09T02:14:19;14.20;99.90
60027;DHT22;45891;53.006;6.512;2022-09-09T02:16:57;14.20;99.90
60027;DHT22;45891;53.006;6.512;2022-09-09T02:19:33;14.20;99.90
60027;DHT22;45891;53.006;6.512;2022-09-09T02:22:01;14.20;99.90
60027;DHT22;45891;53.006;6.512;2022-09-09T02:24:30;14.20;99.90
60027;DHT22;45891;53.006;6.512;2022-09-09T02:27:02;14.20;99.90
60027;DHT22;45891;53.006;6.512;2022-09-09T02:29:41;14.30;99.90
60027;DHT22;45891;53.006;6.512;2022-09-09T02:32:12;14.30;99.90
60027;DHT22;45891;53.006;6.512;2022-09-09T02:34:44;14.30;99.90
60027;DHT22;45891;53.006;6.512;2022-09-09T02:37:11;14.30;99.90
60027;DHT22;45891;53.006;6.512;2022-09-09T02:39:38;14.40;99.90
60027;DHT22;45891;53.006;6.512;2022-09-09T02:42:05;14.40;99.90
60027;DHT22;45891;53.006;6.512;2022-09-09T02:44:31;14.40;99.90
60027;DHT22;45891;53.006;6.512;2022-09-09T02:53:15;14.50;99.90
60027;DHT22;45891;53.006;6.512;2022-09-09T02:55:47;14.50;99.90
60027;DHT22;45891;53.006;6.512;2022-09-09T02:58:17;14.50;99.90
60027;DHT22;45891;53.006;6.512;2022-09-09T03:00:46;14.50;99.90
60027;DHT22;45891;53.006;6.512;2022-09-09T03:03:13;14.60;99.90
60027;DHT22;45891;53.006;6.512;2022-09-09T03:05:42;14.60;99.90
60027;DHT22;45891;53.006;6.512;2022-09-09T03:08:09;14.60;99.90
60027;DHT22;45891;53.006;6.512;2022-09-09T03:10:36;14.60;99.90
60027;DHT22;45891;53.006;6.512;2022-09-09T03:13:03;14.60;99.90
60027;DHT22;45891;53.006;6.512;2022-09-09T03:15:33;14.60;99.90
60027;DHT22;45891;53.006;6.512;2022-09-09T03:17:59;14.60;99.90
60027;DHT22;45891;53.006;6.512;2022-09-09T03:20:27;14.60;99.90
60027;DHT22;45891;53.006;6.512;2022-09-09T03:22:54;14.60;99.90
60027;DHT22;45891;53.006;6.512;2022-09-09T03:25:21;14.50;99.90
60027;DHT22;45891;53.006;6.512;2022-09-09T03:27:52;14.50;99.90
60027;DHT22;45891;53.006;6.512;2022-09-09T03:30:24;14.50;99.90
60027;DHT22;45891;53.006;6.512;2022-09-09T03:32:51;14.50;99.90
60027;DHT22;45891;53.006;6.512;2022-09-09T03:35:18;14.50;99.90
60027;DHT22;45891;53.006;6.512;2022-09-09T03:37:45;14.50;99.90
60027;DHT22;45891;53.006;6.512;2022-09-09T03:40:11;14.50;99.90
60027;DHT22;45891;53.006;6.512;2022-09-09T03:42:38;14.50;99.90
60027;DHT22;45891;53.006;6.512;2022-09-09T03:45:06;14.50;99.90
60027;DHT22;45891;53.006;6.512;2022-09-09T03:47:32;14.50;99.90
60027;DHT22;45891;53.006;6.512;2022-09-09T03:49:59;14.50;99.90
60027;DHT22;45891;53.006;6.512;2022-09-09T03:52:25;14.50;99.90
60027;DHT22;45891;53.006;6.512;2022-09-09T03:54:53;14.50;99.90
60027;DHT22;45891;53.006;6.512;2022-09-09T03:57:20;14.50;99.90
60027;DHT22;45891;53.006;6.512;2022-09-09T03:59:46;14.50;99.90
60027;DHT22;45891;53.006;6.512;2022-09-09T04:02:12;14.50;99.90
60027;DHT22;45891;53.006;6.512;2022-09-09T04:04:38;14.50;99.90
60027;DHT22;45891;53.006;6.512;2022-09-09T04:07:04;14.50;99.90
60027;DHT22;45891;53.006;6.512;2022-09-09T04:09:33;14.50;99.90
60027;DHT22;45891;53.006;6.512;2022-09-09T04:11:59;14.40;99.90
60027;DHT22;45891;53.006;6.512;2022-09-09T04:14:25;14.40;99.90
60027;DHT22;45891;53.006;6.512;2022-09-09T04:16:54;14.40;99.90
60027;DHT22;45891;53.006;6.512;2022-09-09T04:19:23;14.40;99.90
60027;DHT22;45891;53.006;6.512;2022-09-09T04:21:49;14.40;99.90
60027;DHT22;45891;53.006;6.512;2022-09-09T04:24:17;14.40;99.90
60027;DHT22;45891;53.006;6.512;2022-09-09T04:26:43;14.40;99.90
60027;DHT22;45891;53.006;6.512;2022-09-09T04:29:09;14.40;99.90
60027;DHT22;45891;53.006;6.512;2022-09-09T04:31:36;14.40;99.90
60027;DHT22;45891;53.006;6.512;2022-09-09T04:34:03;14.40;99.90
60027;DHT22;45891;53.006;6.512;2022-09-09T04:36:32;14.40;99.90
60027;DHT22;45891;53.006;6.512;2022-09-09T04:38:58;14.40;99.90
60027;DHT22;45891;53.006;6.512;2022-09-09T04:41:24;14.40;99.90
60027;DHT22;45891;53.006;6.512;2022-09-09T04:43:50;14.40;99.90
60027;DHT22;45891;53.006;6.512;2022-09-09T04:46:18;14.40;99.90
60027;DHT22;45891;53.006;6.512;2022-09-09T04:48:44;14.40;99.90
60027;DHT22;45891;53.006;6.512;2022-09-09T04:51:12;14.40;99.90
60027;DHT22;45891;53.006;6.512;2022-09-09T04:53:39;14.40;99.90
60027;DHT22;45891;53.006;6.512;2022-09-09T04:56:08;14.40;99.90
60027;DHT22;45891;53.006;6.512;2022-09-09T04:58:36;14.40;99.90
60027;DHT22;45891;53.006;6.512;2022-09-09T05:01:10;14.30;99.90
60027;DHT22;45891;53.006;6.512;2022-09-09T05:03:37;14.40;99.90
60027;DHT22;45891;53.006;6.512;2022-09-09T05:06:14;14.30;99.90
60027;DHT22;45891;53.006;6.512;2022-09-09T05:08:42;14.30;99.90
60027;DHT22;45891;53.006;6.512;2022-09-09T05:11:20;14.30;99.90
60027;DHT22;45891;53.006;6.512;2022-09-09T05:13:48;14.30;99.90
60027;DHT22;45891;53.006;6.512;2022-09-09T05:16:17;14.30;99.90
60027;DHT22;45891;53.006;6.512;2022-09-09T05:18:43;14.30;99.90
60027;DHT22;45891;53.006;6.512;2022-09-09T05:21:11;14.30;99.90
60027;DHT22;45891;53.006;6.512;2022-09-09T05:23:37;14.30;99.90
60027;DHT22;45891;53.006;6.512;2022-09-09T05:26:04;14.30;99.90
60027;DHT22;45891;53.006;6.512;2022-09-09T05:28:33;14.30;99.90
60027;DHT22;45891;53.006;6.512;2022-09-09T05:31:01;14.30;99.90
60027;DHT22;45891;53.006;6.512;2022-09-09T05:33:30;14.30;99.90
60027;DHT22;45891;53.006;6.512;2022-09-09T05:36:04;14.30;99.90
60027;DHT22;45891;53.006;6.512;2022-09-09T05:38:31;14.40;99.90
60027;DHT22;45891;53.006;6.512;2022-09-09T05:40:59;14.40;99.90
60027;DHT22;45891;53.006;6.512;2022-09-09T05:43:26;14.30;99.90
60027;DHT22;45891;53.006;6.512;2022-09-09T05:46:07;14.30;99.90
60027;DHT22;45891;53.006;6.512;2022-09-09T05:48:35;14.30;99.90
60027;DHT22;45891;53.006;6.512;2022-09-09T05:51:03;14.30;99.90
60027;DHT22;45891;53.006;6.512;2022-09-09T05:53:30;14.30;99.90
60027;DHT22;45891;53.006;6.512;2022-09-09T05:56:01;14.30;99.90
60027;DHT22;45891;53.006;6.512;2022-09-09T05:58:33;14.30;99.90
60027;DHT22;45891;53.006;6.512;2022-09-09T06:01:09;14.30;99.90
60027;DHT22;45891;53.006;6.512;2022-09-09T06:03:37;14.40;99.90
60027;DHT22;45891;53.006;6.512;2022-09-09T06:06:06;14.40;99.90
60027;DHT22;45891;53.006;6.512;2022-09-09T06:08:38;14.40;99.90
60027;DHT22;45891;53.006;6.512;2022-09-09T06:11:09;14.40;99.90
60027;DHT22;45891;53.006;6.512;2022-09-09T06:13:36;14.40;99.90
60027;DHT22;45891;53.006;6.512;2022-09-09T06:16:06;14.50;99.90
60027;DHT22;45891;53.006;6.512;2022-09-09T06:18:33;14.50;99.90
60027;DHT22;45891;53.006;6.512;2022-09-09T06:21:02;14.50;99.90
60027;DHT22;45891;53.006;6.512;2022-09-09T06:23:30;14.60;99.90
60027;DHT22;45891;53.006;6.512;2022-09-09T06:26:08;14.60;99.90
60027;DHT22;45891;53.006;6.512;2022-09-09T06:28:36;14.70;99.90
60027;DHT22;45891;53.006;6.512;2022-09-09T06:31:05;14.70;99.90
60027;DHT22;45891;53.006;6.512;2022-09-09T06:33:35;14.70;99.90
60027;DHT22;45891;53.006;6.512;2022-09-09T06:36:03;14.70;99.90
60027;DHT22;45891;53.006;6.512;2022-09-09T06:38:30;14.80;99.90
60027;DHT22;45891;53.006;6.512;2022-09-09T06:40:58;14.90;99.90
60027;DHT22;45891;53.006;6.512;2022-09-09T06:43:25;14.90;99.90
60027;DHT22;45891;53.006;6.512;2022-09-09T06:46:00;14.90;99.90
60027;DHT22;45891;53.006;6.512;2022-09-09T06:48:27;14.90;99.90
60027;DHT22;45891;53.006;6.512;2022-09-09T06:51:06;14.90;99.90
60027;DHT22;45891;53.006;6.512;2022-09-09T06:53:34;14.90;99.90
60027;DHT22;45891;53.006;6.512;2022-09-09T06:58:58;15.00;99.90
60027;DHT22;45891;53.006;6.512;2022-09-09T07:01:26;15.00;99.90
60027;DHT22;45891;53.006;6.512;2022-09-09T07:03:55;15.10;99.90
60027;DHT22;45891;53.006;6.512;2022-09-09T07:06:24;15.10;99.90
60027;DHT22;45891;53.006;6.512;2022-09-09T07:08:52;15.10;99.90
60027;DHT22;45891;53.006;6.512;2022-09-09T07:11:19;15.10;99.90
60027;DHT22;45891;53.006;6.512;2022-09-09T07:13:47;15.20;99.90
60027;DHT22;45891;53.006;6.512;2022-09-09T07:16:15;15.30;99.90
60027;DHT22;45891;53.006;6.512;2022-09-09T07:18:42;15.40;99.90
60027;DHT22;45891;53.006;6.512;2022-09-09T07:21:10;15.40;99.90
60027;DHT22;45891;53.006;6.512;2022-09-09T07:23:38;15.40;99.90
60027;DHT22;45891;53.006;6.512;2022-09-09T07:26:18;15.50;99.90
60027;DHT22;45891;53.006;6.512;2022-09-09T07:28:49;15.60;99.90
60027;DHT22;45891;53.006;6.512;2022-09-09T07:31:17;15.70;99.90
60027;DHT22;45891;53.006;6.512;2022-09-09T07:33:45;15.80;99.90
60027;DHT22;45891;53.006;6.512;2022-09-09T07:38:47;16.00;99.90
60027;DHT22;45891;53.006;6.512;2022-09-09T07:41:16;16.10;99.90
60027;DHT22;45891;53.006;6.512;2022-09-09T07:43:45;16.40;99.90
60027;DHT22;45891;53.006;6.512;2022-09-09T07:46:13;16.50;99.90
60027;DHT22;45891;53.006;6.512;2022-09-09T07:48:48;16.70;99.90
60027;DHT22;45891;53.006;6.512;2022-09-09T07:51:23;17.30;99.90
60027;DHT22;45891;53.006;6.512;2022-09-09T07:53:59;17.50;99.90
60027;DHT22;45891;53.006;6.512;2022-09-09T07:56:26;17.40;99.90
60027;DHT22;45891;53.006;6.512;2022-09-09T07:58:54;17.30;99.90
60027;DHT22;45891;53.006;6.512;2022-09-09T08:01:22;17.40;99.90
60027;DHT22;45891;53.006;6.512;2022-09-09T08:04:09;17.50;99.90
60027;DHT22;45891;53.006;6.512;2022-09-09T08:06:39;17.80;99.90
60027;DHT22;45891;53.006;6.512;2022-09-09T08:09:06;17.60;99.90
60027;DHT22;45891;53.006;6.512;2022-09-09T08:11:34;17.60;99.90
60027;DHT22;45891;53.006;6.512;2022-09-09T08:14:02;17.90;99.90
60027;DHT22;45891;53.006;6.512;2022-09-09T08:16:32;17.80;99.90
60027;DHT22;45891;53.006;6.512;2022-09-09T08:18:59;17.60;99.90
60027;DHT22;45891;53.006;6.512;2022-09-09T08:21:30;17.50;99.90
60027;DHT22;45891;53.006;6.512;2022-09-09T08:23:57;17.60;99.90
60027;DHT22;45891;53.006;6.512;2022-09-09T08:26:31;17.60;99.90
60027;DHT22;45891;53.006;6.512;2022-09-09T08:28:59;17.60;99.90
60027;DHT22;45891;53.006;6.512;2022-09-09T08:31:34;17.70;99.90
60027;DHT22;45891;53.006;6.512;2022-09-09T08:34:01;18.00;99.90
60027;DHT22;45891;53.006;6.512;2022-09-09T08:36:31;18.40;99.90
60027;DHT22;45891;53.006;6.512;2022-09-09T08:39:00;18.70;99.90
60027;DHT22;45891;53.006;6.512;2022-09-09T08:50:22;19.80;99.90
60027;DHT22;45891;53.006;6.512;2022-09-09T09:12:13;22.60;99.90
60027;DHT22;45891;53.006;6.512;2022-09-09T09:14:41;22.20;99.90
60027;DHT22;45891;53.006;6.512;2022-09-09T09:17:15;22.10;99.90
60027;DHT22;45891;53.006;6.512;2022-09-09T09:19:43;21.70;99.90
60027;DHT22;45891;53.006;6.512;2022-09-09T09:25:20;22.10;99.90
60027;DHT22;45891;53.006;6.512;2022-09-09T09:30:39;22.10;99.90
60027;DHT22;45891;53.006;6.512;2022-09-09T09:33:44;22.30;99.90
60027;DHT22;45891;53.006;6.512;2022-09-09T09:36:13;22.30;99.90
60027;DHT22;45891;53.006;6.512;2022-09-09T09:38:56;22.00;99.90
60027;DHT22;45891;53.006;6.512;2022-09-09T09:41:40;21.70;99.90
60027;DHT22;45891;53.006;6.512;2022-09-09T09:44:31;21.60;99.90
60027;DHT22;45891;53.006;6.512;2022-09-09T09:47:18;21.40;99.90
60027;DHT22;45891;53.006;6.512;2022-09-09T09:49:55;21.20;99.90
60027;DHT22;45891;53.006;6.512;2022-09-09T09:52:24;21.20;99.90
60027;DHT22;45891;53.006;6.512;2022-09-09T09:54:51;20.80;99.90
60027;DHT22;45891;53.006;6.512;2022-09-09T09:57:18;20.60;99.90
60027;DHT22;45891;53.006;6.512;2022-09-09T10:00:13;20.60;99.90
60027;DHT22;45891;53.006;6.512;2022-09-09T10:02:41;20.40;99.90
60027;DHT22;45891;53.006;6.512;2022-09-09T10:07:43;20.20;99.90
60027;DHT22;45891;53.006;6.512;2022-09-09T10:10:20;20.00;99.90
60027;DHT22;45891;53.006;6.512;2022-09-09T10:15:40;19.90;99.90
60027;DHT22;45891;53.006;6.512;2022-09-09T10:21:24;20.40;99.90
60027;DHT22;45891;53.006;6.512;2022-09-09T10:24:02;20.70;99.90
60027;DHT22;45891;53.006;6.512;2022-09-09T10:40:28;21.10;99.90
60027;DHT22;45891;53.006;6.512;2022-09-09T10:51:53;20.60;99.90
60027;DHT22;45891;53.006;6.512;2022-09-09T10:57:44;21.50;99.90
60027;DHT22;45891;53.006;6.512;2022-09-09T11:00:21;22.20;99.90
60027;DHT22;45891;53.006;6.512;2022-09-09T11:02:59;22.70;99.90
60027;DHT22;45891;53.006;6.512;2022-09-09T11:05:43;22.60;99.90
60027;DHT22;45891;53.006;6.512;2022-09-09T11:11:01;22.40;99.90
60027;DHT22;45891;53.006;6.512;2022-09-09T11:16:25;21.60;99.90
60027;DHT22;45891;53.006;6.512;2022-09-09T11:19:02;21.50;99.90
60027;DHT22;45891;53.006;6.512;2022-09-09T11:21:34;21.20;99.90
60027;DHT22;45891;53.006;6.512;2022-09-09T11:24:06;21.30;99.90
60027;DHT22;45891;53.006;6.512;2022-09-09T11:26:43;21.50;99.90
60027;DHT22;45891;53.006;6.512;2022-09-09T11:29:19;21.60;99.90
60027;DHT22;45891;53.006;6.512;2022-09-09T11:32:06;21.70;99.90
60027;DHT22;45891;53.006;6.512;2022-09-09T11:34:39;21.70;99.90
60027;DHT22;45891;53.006;6.512;2022-09-09T11:37:21;21.70;99.90
60027;DHT22;45891;53.006;6.512;2022-09-09T11:42:40;21.30;99.90
60027;DHT22;45891;53.006;6.512;2022-09-09T11:45:26;21.10;99.90
60027;DHT22;45891;53.006;6.512;2022-09-09T11:48:04;21.00;99.90
60027;DHT22;45891;53.006;6.512;2022-09-09T11:50:34;20.80;99.90
60027;DHT22;45891;53.006;6.512;2022-09-09T11:55:40;20.70;99.90
60027;DHT22;45891;53.006;6.512;2022-09-09T11:58:26;20.80;99.90
60027;DHT22;45891;53.006;6.512;2022-09-09T12:00:54;20.70;99.90
60027;DHT22;45891;53.006;6.512;2022-09-09T12:03:40;20.50;99.90
60027;DHT22;45891;53.006;6.512;2022-09-09T12:06:24;20.60;99.90
60027;DHT22;45891;53.006;6.512;2022-09-09T12:08:55;20.70;99.90
60027;DHT22;45891;53.006;6.512;2022-09-09T12:11:28;20.60;99.90
60027;DHT22;45891;53.006;6.512;2022-09-09T12:13:59;20.70;99.90
60027;DHT22;45891;53.006;6.512;2022-09-09T12:16:36;20.90;99.90
60027;DHT22;45891;53.006;6.512;2022-09-09T12:19:21;21.20;99.90
60027;DHT22;45891;53.006;6.512;2022-09-09T12:21:58;21.40;99.90
60027;DHT22;45891;53.006;6.512;2022-09-09T12:24:40;21.50;99.90
60027;DHT22;45891;53.006;6.512;2022-09-09T12:27:23;21.70;99.90
60027;DHT22;45891;53.006;6.512;2022-09-09T12:32:25;21.70;99.90
60027;DHT22;45891;53.006;6.512;2022-09-09T12:34:52;21.80;99.90
60027;DHT22;45891;53.006;6.512;2022-09-09T12:37:42;22.10;99.90
60027;DHT22;45891;53.006;6.512;2022-09-09T12:40:33;22.90;99.90
60027;DHT22;45891;53.006;6.512;2022-09-09T12:43:02;23.30;99.90
60027;DHT22;45891;53.006;6.512;2022-09-09T12:45:32;23.00;99.90
60027;DHT22;45891;53.006;6.512;2022-09-09T12:48:08;22.70;99.90
60027;DHT22;45891;53.006;6.512;2022-09-09T12:50:42;22.60;99.90
60027;DHT22;45891;53.006;6.512;2022-09-09T12:56:03;22.40;99.90
60027;DHT22;45891;53.006;6.512;2022-09-09T12:58:31;23.00;99.90
60027;DHT22;45891;53.006;6.512;2022-09-09T13:01:02;23.80;99.90
60027;DHT22;45891;53.006;6.512;2022-09-09T13:03:32;24.40;99.90
60027;DHT22;45891;53.006;6.512;2022-09-09T13:06:10;24.70;99.90
60027;DHT22;45891;53.006;6.512;2022-09-09T13:08:38;24.50;99.90
60027;DHT22;45891;53.006;6.512;2022-09-09T13:11:10;23.80;99.90
60027;DHT22;45891;53.006;6.512;2022-09-09T13:13:39;23.10;99.90
60027;DHT22;45891;53.006;6.512;2022-09-09T13:16:22;22.80;99.90
60027;DHT22;45891;53.006;6.512;2022-09-09T13:18:49;22.70;99.90
60027;DHT22;45891;53.006;6.512;2022-09-09T13:21:15;22.80;99.90
60027;DHT22;45891;53.006;6.512;2022-09-09T13:23:41;22.80;99.90
60027;DHT22;45891;53.006;6.512;2022-09-09T13:28:47;22.70;99.90
60027;DHT22;45891;53.006;6.512;2022-09-09T13:31:28;22.90;99.40
60027;DHT22;45891;53.006;6.512;2022-09-09T13:33:55;23.00;99.90
60027;DHT22;45891;53.006;6.512;2022-09-09T13:36:32;23.10;98.80
60027;DHT22;45891;53.006;6.512;2022-09-09T13:39:02;23.50;99.90
60027;DHT22;45891;53.006;6.512;2022-09-09T13:41:32;23.30;99.40
60027;DHT22;45891;53.006;6.512;2022-09-09T13:44:00;23.10;99.90
60027;DHT22;45891;53.006;6.512;2022-09-09T13:49:19;23.30;99.90
60027;DHT22;45891;53.006;6.512;2022-09-09T13:51:48;23.60;98.00
60027;DHT22;45891;53.006;6.512;2022-09-09T13:54:18;24.30;98.80
60027;DHT22;45891;53.006;6.512;2022-09-09T13:56:45;25.30;98.70
60027;DHT22;45891;53.006;6.512;2022-09-09T13:59:16;25.40;98.60
60027;DHT22;45891;53.006;6.512;2022-09-09T14:01:45;25.10;97.20
60027;DHT22;45891;53.006;6.512;2022-09-09T14:04:12;24.20;98.40
60027;DHT22;45891;53.006;6.512;2022-09-09T14:06:39;23.10;98.50
60027;DHT22;45891;53.006;6.512;2022-09-09T14:09:06;22.20;99.00
60027;DHT22;45891;53.006;6.512;2022-09-09T14:11:33;21.30;99.90
60027;DHT22;45891;53.006;6.512;2022-09-09T14:13:59;20.70;99.90
60027;DHT22;45891;53.006;6.512;2022-09-09T14:16:27;20.20;99.90
60027;DHT22;45891;53.006;6.512;2022-09-09T14:18:53;20.10;99.90
60027;DHT22;45891;53.006;6.512;2022-09-09T14:21:22;20.10;99.90
60027;DHT22;45891;53.006;6.512;2022-09-09T14:23:49;20.20;99.90
60027;DHT22;45891;53.006;6.512;2022-09-09T14:26:15;20.80;99.90
60027;DHT22;45891;53.006;6.512;2022-09-09T14:28:41;21.40;99.90
60027;DHT22;45891;53.006;6.512;2022-09-09T14:31:07;22.30;99.90
60027;DHT22;45891;53.006;6.512;2022-09-09T14:33:33;23.40;99.90
60027;DHT22;45891;53.006;6.512;2022-09-09T14:36:02;24.10;99.90
60027;DHT22;45891;53.006;6.512;2022-09-09T14:38:30;24.90;99.90
60027;DHT22;45891;53.006;6.512;2022-09-09T14:40:57;25.10;99.90
60027;DHT22;45891;53.006;6.512;2022-09-09T14:43:24;24.70;99.90
60027;DHT22;45891;53.006;6.512;2022-09-09T14:45:50;24.50;99.90
60027;DHT22;45891;53.006;6.512;2022-09-09T14:48:19;24.70;99.90
60027;DHT22;45891;53.006;6.512;2022-09-09T14:50:45;25.00;99.90
60027;DHT22;45891;53.006;6.512;2022-09-09T14:53:12;25.80;99.90
60027;DHT22;45891;53.006;6.512;2022-09-09T14:55:39;26.10;98.60
60027;DHT22;45891;53.006;6.512;2022-09-09T14:58:06;26.50;99.00
60027;DHT22;45891;53.006;6.512;2022-09-09T15:00:32;27.10;98.40
60027;DHT22;45891;53.006;6.512;2022-09-09T15:02:58;27.60;96.20
60027;DHT22;45891;53.006;6.512;2022-09-09T15:05:24;26.00;97.60
60027;DHT22;45891;53.006;6.512;2022-09-09T15:07:50;25.90;97.60
60027;DHT22;45891;53.006;6.512;2022-09-09T15:10:17;25.30;97.70
60027;DHT22;45891;53.006;6.512;2022-09-09T15:12:44;25.60;97.50
60027;DHT22;45891;53.006;6.512;2022-09-09T15:15:10;25.10;97.50
60027;DHT22;45891;53.006;6.512;2022-09-09T15:17:36;24.60;96.90
60027;DHT22;45891;53.006;6.512;2022-09-09T15:20:04;23.60;98.40
60027;DHT22;45891;53.006;6.512;2022-09-09T15:22:32;23.50;98.20
60027;DHT22;45891;53.006;6.512;2022-09-09T15:24:58;23.00;99.10
60027;DHT22;45891;53.006;6.512;2022-09-09T15:27:24;23.00;99.00
60027;DHT22;45891;53.006;6.512;2022-09-09T15:29:50;22.50;99.30
60027;DHT22;45891;53.006;6.512;2022-09-09T15:32:18;22.20;99.90
60027;DHT22;45891;53.006;6.512;2022-09-09T15:34:44;21.90;99.50
60027;DHT22;45891;53.006;6.512;2022-09-09T15:37:10;21.90;99.90
60027;DHT22;45891;53.006;6.512;2022-09-09T15:39:39;22.70;99.30
60027;DHT22;45891;53.006;6.512;2022-09-09T15:42:06;23.40;98.70
60027;DHT22;45891;53.006;6.512;2022-09-09T15:44:41;23.70;98.60
60027;DHT22;45891;53.006;6.512;2022-09-09T15:47:11;23.20;98.80
60027;DHT22;45891;53.006;6.512;2022-09-09T15:49:38;22.40;99.30
60027;DHT22;45891;53.006;6.512;2022-09-09T15:52:04;21.80;99.90
60027;DHT22;45891;53.006;6.512;2022-09-09T15:54:32;21.40;99.90
60027;DHT22;45891;53.006;6.512;2022-09-09T15:57:00;21.00;99.90
60027;DHT22;45891;53.006;6.512;2022-09-09T15:59:29;20.70;99.90
60027;DHT22;45891;53.006;6.512;2022-09-09T16:01:56;20.50;99.90
60027;DHT22;45891;53.006;6.512;2022-09-09T16:04:23;20.30;99.90
60027;DHT22;45891;53.006;6.512;2022-09-09T16:06:58;20.30;99.90
60027;DHT22;45891;53.006;6.512;2022-09-09T16:09:26;20.40;99.90
60027;DHT22;45891;53.006;6.512;2022-09-09T16:11:52;20.30;99.90
60027;DHT22;45891;53.006;6.512;2022-09-09T16:14:19;20.20;99.90
60027;DHT22;45891;53.006;6.512;2022-09-09T16:16:46;20.10;99.90
60027;DHT22;45891;53.006;6.512;2022-09-09T16:19:12;20.00;99.90
60027;DHT22;45891;53.006;6.512;2022-09-09T16:21:41;19.80;99.90
60027;DHT22;45891;53.006;6.512;2022-09-09T16:24:09;19.70;99.90
60027;DHT22;45891;53.006;6.512;2022-09-09T16:26:38;19.50;99.90
60027;DHT22;45891;53.006;6.512;2022-09-09T16:29:05;19.80;99.90
60027;DHT22;45891;53.006;6.512;2022-09-09T16:31:32;20.40;99.90
60027;DHT22;45891;53.006;6.512;2022-09-09T16:33:58;20.30;99.90
60027;DHT22;45891;53.006;6.512;2022-09-09T16:36:26;20.00;99.90
60027;DHT22;45891;53.006;6.512;2022-09-09T16:38:54;19.70;99.90
60027;DHT22;45891;53.006;6.512;2022-09-09T16:41:21;19.60;99.90
60027;DHT22;45891;53.006;6.512;2022-09-09T16:43:47;19.50;99.90
60027;DHT22;45891;53.006;6.512;2022-09-09T16:46:19;19.50;99.90
60027;DHT22;45891;53.006;6.512;2022-09-09T16:48:46;19.40;99.90
60027;DHT22;45891;53.006;6.512;2022-09-09T16:51:25;19.30;99.90
60027;DHT22;45891;53.006;6.512;2022-09-09T16:53:53;19.30;99.90
60027;DHT22;45891;53.006;6.512;2022-09-09T16:56:22;19.30;99.90
60027;DHT22;45891;53.006;6.512;2022-09-09T16:58:50;19.30;99.90
60027;DHT22;45891;53.006;6.512;2022-09-09T17:01:17;19.40;99.90
60027;DHT22;45891;53.006;6.512;2022-09-09T17:03:43;19.60;99.90
60027;DHT22;45891;53.006;6.512;2022-09-09T17:06:13;19.90;99.90
60027;DHT22;45891;53.006;6.512;2022-09-09T17:08:41;19.80;99.90
60027;DHT22;45891;53.006;6.512;2022-09-09T17:11:17;19.80;99.90
60027;DHT22;45891;53.006;6.512;2022-09-09T17:13:46;19.70;99.90
60027;DHT22;45891;53.006;6.512;2022-09-09T17:16:14;19.60;99.90
60027;DHT22;45891;53.006;6.512;2022-09-09T17:18:41;19.60;99.90
60027;DHT22;45891;53.006;6.512;2022-09-09T17:21:13;19.50;99.90
60027;DHT22;45891;53.006;6.512;2022-09-09T17:23:41;19.40;99.90
60027;DHT22;45891;53.006;6.512;2022-09-09T17:26:10;19.40;99.90
60027;DHT22;45891;53.006;6.512;2022-09-09T17:28:37;19.30;99.90
60027;DHT22;45891;53.006;6.512;2022-09-09T17:31:06;19.20;99.90
60027;DHT22;45891;53.006;6.512;2022-09-09T17:33:34;19.10;99.90
60027;DHT22;45891;53.006;6.512;2022-09-09T17:36:11;19.00;99.90
60027;DHT22;45891;53.006;6.512;2022-09-09T17:38:38;19.00;99.90
60027;DHT22;45891;53.006;6.512;2022-09-09T17:43:35;18.80;99.90
60027;DHT22;45891;53.006;6.512;2022-09-09T17:46:11;18.80;99.90
60027;DHT22;45891;53.006;6.512;2022-09-09T17:48:39;18.80;99.90
60027;DHT22;45891;53.006;6.512;2022-09-09T17:51:07;18.70;99.90
60027;DHT22;45891;53.006;6.512;2022-09-09T17:53:39;18.70;99.90
60027;DHT22;45891;53.006;6.512;2022-09-09T17:56:07;18.70;99.90
60027;DHT22;45891;53.006;6.512;2022-09-09T17:58:34;18.60;99.90
60027;DHT22;45891;53.006;6.512;2022-09-09T18:01:13;18.60;99.90
60027;DHT22;45891;53.006;6.512;2022-09-09T18:03:42;18.50;99.90
60027;DHT22;45891;53.006;6.512;2022-09-09T18:06:11;18.50;99.90
60027;DHT22;45891;53.006;6.512;2022-09-09T18:08:39;18.50;99.90
60027;DHT22;45891;53.006;6.512;2022-09-09T18:11:06;18.40;99.90